sensor_id;sensor_type;location;lat;lon;timestamp;P1;durP1;ratioP1;P2;durP2;ratioP2
71639;SDS011;60912;48.968;10.124;2023-03-24T00:26:00;6.13;;;3.42;;
71639;SDS011;60912;48.968;10.124;2023-03-24T00:28:30;6.00;;;3.70;;
71639;SDS011;60912;48.968;10.124;2023-03-24T00:30:57;5.75;;;3.58;;
71639;SDS011;60912;48.968;10.124;2023-03-24T00:33:24;5.72;;;3.58;;
71639;SDS011;60912;48.968;10.124;2023-03-24T00:35:49;4.80;;;3.40;;
71639;SDS011;60912;48.968;10.124;2023-03-24T00:38:15;6.43;;;3.20;;
71639;SDS011;60912;48.968;10.124;2023-03-24T00:40:44;4.87;;;3.20;;
71639;SDS011;60912;48.968;10.124;2023-03-24T00:43:10;7.47;;;3.20;;
71639;SDS011;60912;48.968;10.124;2023-03-24T00:45:37;5.82;;;3.13;;
71639;SDS011;60912;48.968;10.124;2023-03-24T00:48:10;6.20;;;3.23;;
71639;SDS011;60912;48.968;10.124;2023-03-24T00:50:36;6.00;;;3.08;;
71639;SDS011;60912;48.968;10.124;2023-03-24T00:53:01;5.33;;;3.10;;
71639;SDS011;60912;48.968;10.124;2023-03-24T00:55:27;5.15;;;3.35;;
71639;SDS011;60912;48.968;10.124;2023-03-24T00:57:52;7.17;;;3.27;;
71639;SDS011;60912;48.968;10.124;2023-03-24T01:00:22;6.28;;;3.08;;
71639;SDS011;60912;48.968;10.124;2023-03-24T01:02:50;5.57;;;3.40;;
71639;SDS011;60912;48.968;10.124;2023-03-24T01:05:20;6.00;;;3.57;;
71639;SDS011;60912;48.968;10.124;2023-03-24T01:07:46;6.57;;;3.72;;
71639;SDS011;60912;48.968;10.124;2023-03-24T01:10:16;6.40;;;3.45;;
71639;SDS011;60912;48.968;10.124;2023-03-24T01:12:43;6.10;;;3.63;;
71639;SDS011;60912;48.968;10.124;2023-03-24T01:15:13;7.03;;;3.90;;
71639;SDS011;60912;48.968;10.124;2023-03-24T01:17:40;7.67;;;3.60;;
71639;SDS011;60912;48.968;10.124;2023-03-24T01:20:06;7.40;;;3.50;;
71639;SDS011;60912;48.968;10.124;2023-03-24T01:22:35;6.65;;;3.60;;
71639;SDS011;60912;48.968;10.124;2023-03-24T01:25:02;7.82;;;3.30;;
71639;SDS011;60912;48.968;10.124;2023-03-24T01:27:29;5.77;;;3.60;;
71639;SDS011;60912;48.968;10.124;2023-03-24T01:30:01;7.80;;;3.97;;
71639;SDS011;60912;48.968;10.124;2023-03-24T01:32:28;7.47;;;3.58;;
71639;SDS011;60912;48.968;10.124;2023-03-24T01:34:54;5.30;;;3.70;;
71639;SDS011;60912;48.968;10.124;2023-03-24T01:37:19;7.00;;;3.50;;
71639;SDS011;60912;48.968;10.124;2023-03-24T01:39:47;6.37;;;3.60;;
71639;SDS011;60912;48.968;10.124;2023-03-24T01:42:18;6.93;;;3.80;;
71639;SDS011;60912;48.968;10.124;2023-03-24T01:44:48;5.75;;;3.25;;
71639;SDS011;60912;48.968;10.124;2023-03-24T01:47:15;5.15;;;3.28;;
71639;SDS011;60912;48.968;10.124;2023-03-24T01:49:46;5.75;;;3.50;;
71639;SDS011;60912;48.968;10.124;2023-03-24T01:52:20;6.33;;;3.40;;
71639;SDS011;60912;48.968;10.124;2023-03-24T01:55:00;6.47;;;3.50;;
71639;SDS011;60912;48.968;10.124;2023-03-24T01:57:33;5.50;;;3.30;;
71639;SDS011;60912;48.968;10.124;2023-03-24T02:00:10;5.13;;;3.20;;
71639;SDS011;60912;48.968;10.124;2023-03-24T02:02:37;6.40;;;3.20;;
71639;SDS011;60912;48.968;10.124;2023-03-24T02:05:07;5.73;;;3.37;;
71639;SDS011;60912;48.968;10.124;2023-03-24T02:07:43;6.25;;;3.55;;
71639;SDS011;60912;48.968;10.124;2023-03-24T02:10:29;5.15;;;3.00;;
71639;SDS011;60912;48.968;10.124;2023-03-24T02:12:57;5.35;;;2.97;;
71639;SDS011;60912;48.968;10.124;2023-03-24T02:15:22;6.77;;;3.20;;
71639;SDS011;60912;48.968;10.124;2023-03-24T02:23:33;7.00;;;3.50;;
71639;SDS011;60912;48.968;10.124;2023-03-24T02:39:36;6.40;;;3.33;;
71639;SDS011;60912;48.968;10.124;2023-03-24T02:44:43;7.00;;;2.93;;
71639;SDS011;60912;48.968;10.124;2023-03-24T02:53:00;5.95;;;3.10;;
71639;SDS011;60912;48.968;10.124;2023-03-24T02:58:33;5.70;;;3.00;;
71639;SDS011;60912;48.968;10.124;2023-03-24T03:01:05;5.95;;;2.90;;
71639;SDS011;60912;48.968;10.124;2023-03-24T03:03:38;6.43;;;3.33;;
71639;SDS011;60912;48.968;10.124;2023-03-24T03:06:17;6.03;;;3.10;;
71639;SDS011;60912;48.968;10.124;2023-03-24T03:08:46;7.88;;;3.30;;
71639;SDS011;60912;48.968;10.124;2023-03-24T03:11:14;4.40;;;2.90;;
71639;SDS011;60912;48.968;10.124;2023-03-24T03:16:32;6.82;;;3.00;;
71639;SDS011;60912;48.968;10.124;2023-03-24T03:19:02;5.78;;;3.05;;
71639;SDS011;60912;48.968;10.124;2023-03-24T03:21:35;5.28;;;3.20;;
71639;SDS011;60912;48.968;10.124;2023-03-24T03:24:10;5.53;;;2.90;;
71639;SDS011;60912;48.968;10.124;2023-03-24T03:26:39;5.82;;;3.20;;
71639;SDS011;60912;48.968;10.124;2023-03-24T03:29:10;5.90;;;3.40;;
71639;SDS011;60912;48.968;10.124;2023-03-24T03:31:42;6.72;;;3.33;;
71639;SDS011;60912;48.968;10.124;2023-03-24T03:34:19;5.20;;;3.00;;
71639;SDS011;60912;48.968;10.124;2023-03-24T03:39:15;5.30;;;2.70;;
71639;SDS011;60912;48.968;10.124;2023-03-24T03:41:46;5.65;;;2.95;;
71639;SDS011;60912;48.968;10.124;2023-03-24T03:44:11;5.30;;;2.70;;
71639;SDS011;60912;48.968;10.124;2023-03-24T03:46:37;5.20;;;3.00;;
71639;SDS011;60912;48.968;10.124;2023-03-24T03:49:03;5.73;;;2.97;;
71639;SDS011;60912;48.968;10.124;2023-03-24T03:51:31;5.57;;;3.00;;
71639;SDS011;60912;48.968;10.124;2023-03-24T03:53:58;5.93;;;3.05;;
71639;SDS011;60912;48.968;10.124;2023-03-24T03:56:29;5.13;;;2.92;;
71639;SDS011;60912;48.968;10.124;2023-03-24T03:58:55;6.10;;;3.40;;
71639;SDS011;60912;48.968;10.124;2023-03-24T04:01:23;5.43;;;3.03;;
71639;SDS011;60912;48.968;10.124;2023-03-24T04:23:36;6.65;;;3.00;;
71639;SDS011;60912;48.968;10.124;2023-03-24T04:31:26;8.25;;;3.08;;
71639;SDS011;60912;48.968;10.124;2023-03-24T04:34:01;4.68;;;2.90;;
71639;SDS011;60912;48.968;10.124;2023-03-24T04:36:40;5.38;;;3.17;;
71639;SDS011;60912;48.968;10.124;2023-03-24T04:39:11;4.75;;;2.63;;
71639;SDS011;60912;48.968;10.124;2023-03-24T04:41:39;7.27;;;2.90;;
71639;SDS011;60912;48.968;10.124;2023-03-24T04:44:07;4.85;;;3.17;;
71639;SDS011;60912;48.968;10.124;2023-03-24T04:46:35;5.55;;;2.90;;
71639;SDS011;60912;48.968;10.124;2023-03-24T04:49:02;5.32;;;2.95;;
71639;SDS011;60912;48.968;10.124;2023-03-24T04:51:28;6.15;;;2.65;;
71639;SDS011;60912;48.968;10.124;2023-03-24T04:53:55;5.20;;;2.90;;
71639;SDS011;60912;48.968;10.124;2023-03-24T04:58:49;8.97;;;2.50;;
71639;SDS011;60912;48.968;10.124;2023-03-24T05:01:15;5.18;;;2.67;;
71639;SDS011;60912;48.968;10.124;2023-03-24T05:03:41;5.53;;;2.60;;
71639;SDS011;60912;48.968;10.124;2023-03-24T05:06:09;6.85;;;2.92;;
71639;SDS011;60912;48.968;10.124;2023-03-24T05:08:35;6.00;;;2.83;;
71639;SDS011;60912;48.968;10.124;2023-03-24T05:11:00;6.57;;;2.80;;
71639;SDS011;60912;48.968;10.124;2023-03-24T05:13:27;7.43;;;2.93;;
71639;SDS011;60912;48.968;10.124;2023-03-24T05:15:52;4.45;;;2.50;;
71639;SDS011;60912;48.968;10.124;2023-03-24T05:18:18;4.90;;;2.97;;
71639;SDS011;60912;48.968;10.124;2023-03-24T05:20:44;4.53;;;2.73;;
71639;SDS011;60912;48.968;10.124;2023-03-24T05:23:10;6.83;;;2.70;;
71639;SDS011;60912;48.968;10.124;2023-03-24T05:25:35;4.70;;;2.65;;
71639;SDS011;60912;48.968;10.124;2023-03-24T05:28:00;4.63;;;2.60;;
71639;SDS011;60912;48.968;10.124;2023-03-24T05:30:26;4.77;;;2.33;;
71639;SDS011;60912;48.968;10.124;2023-03-24T05:32:51;6.35;;;2.67;;
71639;SDS011;60912;48.968;10.124;2023-03-24T05:35:17;6.20;;;3.00;;
71639;SDS011;60912;48.968;10.124;2023-03-24T05:37:42;4.80;;;2.60;;
71639;SDS011;60912;48.968;10.124;2023-03-24T05:40:08;5.70;;;2.93;;
71639;SDS011;60912;48.968;10.124;2023-03-24T05:42:34;6.40;;;3.15;;
71639;SDS011;60912;48.968;10.124;2023-03-24T05:44:59;6.93;;;2.73;;
71639;SDS011;60912;48.968;10.124;2023-03-24T05:47:24;5.17;;;2.90;;
71639;SDS011;60912;48.968;10.124;2023-03-24T05:49:51;7.15;;;2.90;;
71639;SDS011;60912;48.968;10.124;2023-03-24T05:52:16;6.25;;;3.03;;
71639;SDS011;60912;48.968;10.124;2023-03-24T05:54:44;7.47;;;3.03;;
71639;SDS011;60912;48.968;10.124;2023-03-24T05:57:11;4.85;;;2.67;;
71639;SDS011;60912;48.968;10.124;2023-03-24T05:59:38;6.38;;;2.80;;
71639;SDS011;60912;48.968;10.124;2023-03-24T06:02:04;5.70;;;2.30;;
71639;SDS011;60912;48.968;10.124;2023-03-24T06:04:29;6.55;;;2.78;;
71639;SDS011;60912;48.968;10.124;2023-03-24T06:06:56;5.83;;;2.27;;
71639;SDS011;60912;48.968;10.124;2023-03-24T06:09:23;7.28;;;2.75;;
71639;SDS011;60912;48.968;10.124;2023-03-24T06:11:50;5.85;;;2.35;;
71639;SDS011;60912;48.968;10.124;2023-03-24T06:14:15;4.40;;;1.87;;
71639;SDS011;60912;48.968;10.124;2023-03-24T06:16:40;3.77;;;1.70;;
71639;SDS011;60912;48.968;10.124;2023-03-24T06:19:06;4.47;;;1.50;;
71639;SDS011;60912;48.968;10.124;2023-03-24T06:21:32;5.23;;;1.83;;
71639;SDS011;60912;48.968;10.124;2023-03-24T06:23:58;5.55;;;1.88;;
71639;SDS011;60912;48.968;10.124;2023-03-24T06:26:24;3.15;;;1.65;;
71639;SDS011;60912;48.968;10.124;2023-03-24T06:28:50;4.20;;;1.90;;
71639;SDS011;60912;48.968;10.124;2023-03-24T06:31:17;5.83;;;1.80;;
71639;SDS011;60912;48.968;10.124;2023-03-24T06:33:45;4.10;;;1.90;;
71639;SDS011;60912;48.968;10.124;2023-03-24T06:36:11;6.25;;;2.15;;
71639;SDS011;60912;48.968;10.124;2023-03-24T06:38:37;6.10;;;2.00;;
71639;SDS011;60912;48.968;10.124;2023-03-24T06:41:03;5.20;;;1.90;;
71639;SDS011;60912;48.968;10.124;2023-03-24T06:43:29;4.63;;;1.77;;
71639;SDS011;60912;48.968;10.124;2023-03-24T06:45:55;3.42;;;1.80;;
71639;SDS011;60912;48.968;10.124;2023-03-24T06:48:21;5.03;;;1.97;;
71639;SDS011;60912;48.968;10.124;2023-03-24T06:50:47;6.05;;;2.00;;
71639;SDS011;60912;48.968;10.124;2023-03-24T06:53:12;3.80;;;1.90;;
71639;SDS011;60912;48.968;10.124;2023-03-24T06:55:37;6.73;;;2.17;;
71639;SDS011;60912;48.968;10.124;2023-03-24T06:58:04;8.03;;;3.20;;
71639;SDS011;60912;48.968;10.124;2023-03-24T07:00:29;6.85;;;3.10;;
71639;SDS011;60912;48.968;10.124;2023-03-24T07:02:55;4.83;;;2.50;;
71639;SDS011;60912;48.968;10.124;2023-03-24T07:05:21;8.52;;;2.70;;
71639;SDS011;60912;48.968;10.124;2023-03-24T07:07:47;4.80;;;2.40;;
71639;SDS011;60912;48.968;10.124;2023-03-24T07:10:13;4.53;;;2.13;;
71639;SDS011;60912;48.968;10.124;2023-03-24T07:12:38;5.15;;;2.10;;
71639;SDS011;60912;48.968;10.124;2023-03-24T07:15:04;3.83;;;2.27;;
71639;SDS011;60912;48.968;10.124;2023-03-24T07:17:32;4.55;;;2.10;;
71639;SDS011;60912;48.968;10.124;2023-03-24T07:19:58;3.75;;;2.08;;
71639;SDS011;60912;48.968;10.124;2023-03-24T07:22:23;3.83;;;2.17;;
71639;SDS011;60912;48.968;10.124;2023-03-24T07:24:49;3.83;;;1.90;;
71639;SDS011;60912;48.968;10.124;2023-03-24T07:27:16;4.87;;;2.20;;
71639;SDS011;60912;48.968;10.124;2023-03-24T07:29:42;3.28;;;1.90;;
71639;SDS011;60912;48.968;10.124;2023-03-24T07:32:08;4.53;;;1.80;;
71639;SDS011;60912;48.968;10.124;2023-03-24T07:34:33;3.30;;;1.80;;
71639;SDS011;60912;48.968;10.124;2023-03-24T07:37:00;7.45;;;2.20;;
71639;SDS011;60912;48.968;10.124;2023-03-24T07:39:26;4.33;;;1.70;;
71639;SDS011;60912;48.968;10.124;2023-03-24T07:41:52;3.92;;;1.90;;
71639;SDS011;60912;48.968;10.124;2023-03-24T07:44:17;4.57;;;2.10;;
71639;SDS011;60912;48.968;10.124;2023-03-24T07:46:43;3.83;;;2.00;;
71639;SDS011;60912;48.968;10.124;2023-03-24T07:49:08;3.70;;;1.90;;
71639;SDS011;60912;48.968;10.124;2023-03-24T07:51:33;5.27;;;2.40;;
71639;SDS011;60912;48.968;10.124;2023-03-24T07:53:59;4.67;;;2.43;;
71639;SDS011;60912;48.968;10.124;2023-03-24T07:56:25;4.32;;;2.50;;
71639;SDS011;60912;48.968;10.124;2023-03-24T07:58:50;4.13;;;2.63;;
71639;SDS011;60912;48.968;10.124;2023-03-24T08:01:15;4.63;;;2.73;;
71639;SDS011;60912;48.968;10.124;2023-03-24T08:03:41;4.40;;;2.40;;
71639;SDS011;60912;48.968;10.124;2023-03-24T08:06:07;4.80;;;2.60;;
71639;SDS011;60912;48.968;10.124;2023-03-24T08:08:34;5.18;;;2.90;;
71639;SDS011;60912;48.968;10.124;2023-03-24T08:11:00;5.20;;;2.53;;
71639;SDS011;60912;48.968;10.124;2023-03-24T08:13:25;5.18;;;2.60;;
71639;SDS011;60912;48.968;10.124;2023-03-24T08:15:51;6.67;;;2.60;;
71639;SDS011;60912;48.968;10.124;2023-03-24T08:18:17;5.88;;;2.70;;
71639;SDS011;60912;48.968;10.124;2023-03-24T08:20:49;4.68;;;2.75;;
71639;SDS011;60912;48.968;10.124;2023-03-24T08:23:18;4.57;;;2.60;;
71639;SDS011;60912;48.968;10.124;2023-03-24T08:25:44;6.00;;;2.83;;
71639;SDS011;60912;48.968;10.124;2023-03-24T08:28:11;6.43;;;2.88;;
71639;SDS011;60912;48.968;10.124;2023-03-24T08:30:37;6.47;;;2.90;;
71639;SDS011;60912;48.968;10.124;2023-03-24T08:33:08;6.38;;;3.42;;
71639;SDS011;60912;48.968;10.124;2023-03-24T08:35:36;4.75;;;2.70;;
71639;SDS011;60912;48.968;10.124;2023-03-24T08:38:06;6.65;;;3.00;;
71639;SDS011;60912;48.968;10.124;2023-03-24T08:40:34;5.05;;;2.60;;
71639;SDS011;60912;48.968;10.124;2023-03-24T08:43:03;5.90;;;3.07;;
71639;SDS011;60912;48.968;10.124;2023-03-24T08:45:35;6.22;;;3.00;;
71639;SDS011;60912;48.968;10.124;2023-03-24T08:48:01;5.55;;;2.78;;
71639;SDS011;60912;48.968;10.124;2023-03-24T08:50:32;6.82;;;3.00;;
71639;SDS011;60912;48.968;10.124;2023-03-24T08:53:00;8.95;;;4.30;;
71639;SDS011;60912;48.968;10.124;2023-03-24T08:55:27;6.07;;;3.37;;
71639;SDS011;60912;48.968;10.124;2023-03-24T08:57:52;6.05;;;3.20;;
71639;SDS011;60912;48.968;10.124;2023-03-24T09:00:18;5.10;;;2.93;;
71639;SDS011;60912;48.968;10.124;2023-03-24T09:02:46;5.38;;;2.75;;
71639;SDS011;60912;48.968;10.124;2023-03-24T09:05:13;4.82;;;2.63;;
71639;SDS011;60912;48.968;10.124;2023-03-24T09:07:45;4.30;;;2.55;;
71639;SDS011;60912;48.968;10.124;2023-03-24T09:10:12;5.80;;;2.70;;
71639;SDS011;60912;48.968;10.124;2023-03-24T09:12:38;5.93;;;2.97;;
71639;SDS011;60912;48.968;10.124;2023-03-24T09:15:05;4.78;;;2.20;;
71639;SDS011;60912;48.968;10.124;2023-03-24T09:17:31;5.25;;;2.65;;
71639;SDS011;60912;48.968;10.124;2023-03-24T09:19:57;4.77;;;3.00;;
71639;SDS011;60912;48.968;10.124;2023-03-24T09:22:23;5.17;;;3.00;;
71639;SDS011;60912;48.968;10.124;2023-03-24T09:24:48;5.83;;;2.87;;
71639;SDS011;60912;48.968;10.124;2023-03-24T09:27:14;4.60;;;3.10;;
71639;SDS011;60912;48.968;10.124;2023-03-24T09:29:40;4.17;;;2.77;;
71639;SDS011;60912;48.968;10.124;2023-03-24T09:32:06;5.00;;;2.90;;
71639;SDS011;60912;48.968;10.124;2023-03-24T09:34:31;4.83;;;2.70;;
71639;SDS011;60912;48.968;10.124;2023-03-24T09:36:57;5.50;;;2.78;;
71639;SDS011;60912;48.968;10.124;2023-03-24T09:39:23;5.38;;;2.90;;
71639;SDS011;60912;48.968;10.124;2023-03-24T09:41:49;5.23;;;2.80;;
71639;SDS011;60912;48.968;10.124;2023-03-24T09:50:02;4.80;;;2.92;;
71639;SDS011;60912;48.968;10.124;2023-03-24T09:52:37;5.15;;;2.67;;
71639;SDS011;60912;48.968;10.124;2023-03-24T09:55:09;4.10;;;2.63;;
71639;SDS011;60912;48.968;10.124;2023-03-24T09:57:40;5.33;;;2.87;;
71639;SDS011;60912;48.968;10.124;2023-03-24T10:02:50;4.40;;;2.90;;
71639;SDS011;60912;48.968;10.124;2023-03-24T10:05:17;4.30;;;2.70;;
71639;SDS011;60912;48.968;10.124;2023-03-24T10:07:54;4.45;;;2.60;;
71639;SDS011;60912;48.968;10.124;2023-03-24T10:13:08;4.43;;;2.58;;
71639;SDS011;60912;48.968;10.124;2023-03-24T10:15:50;4.45;;;2.47;;
71639;SDS011;60912;48.968;10.124;2023-03-24T10:26:27;4.03;;;2.72;;
71639;SDS011;60912;48.968;10.124;2023-03-24T10:31:31;3.30;;;2.30;;
71639;SDS011;60912;48.968;10.124;2023-03-24T10:34:00;3.90;;;2.20;;
71639;SDS011;60912;48.968;10.124;2023-03-24T10:36:26;3.80;;;2.30;;
71639;SDS011;60912;48.968;10.124;2023-03-24T10:38:53;5.00;;;2.30;;
71639;SDS011;60912;48.968;10.124;2023-03-24T10:41:23;3.80;;;2.00;;
71639;SDS011;60912;48.968;10.124;2023-03-24T10:43:50;6.55;;;1.90;;
71639;SDS011;60912;48.968;10.124;2023-03-24T10:46:19;4.50;;;1.85;;
71639;SDS011;60912;48.968;10.124;2023-03-24T10:51:16;2.80;;;1.57;;
71639;SDS011;60912;48.968;10.124;2023-03-24T10:53:44;3.20;;;1.40;;
71639;SDS011;60912;48.968;10.124;2023-03-24T10:56:36;3.63;;;1.30;;
71639;SDS011;60912;48.968;10.124;2023-03-24T11:04:33;3.53;;;1.30;;
71639;SDS011;60912;48.968;10.124;2023-03-24T11:07:00;3.08;;;1.15;;
71639;SDS011;60912;48.968;10.124;2023-03-24T11:09:28;3.43;;;1.23;;
71639;SDS011;60912;48.968;10.124;2023-03-24T11:11:56;4.97;;;1.20;;
71639;SDS011;60912;48.968;10.124;2023-03-24T11:14:27;2.22;;;1.20;;
71639;SDS011;60912;48.968;10.124;2023-03-24T11:17:01;2.97;;;1.30;;
71639;SDS011;60912;48.968;10.124;2023-03-24T11:19:35;2.30;;;1.10;;
71639;SDS011;60912;48.968;10.124;2023-03-24T11:22:01;3.40;;;1.40;;
71639;SDS011;60912;48.968;10.124;2023-03-24T11:24:29;2.47;;;1.15;;
71639;SDS011;60912;48.968;10.124;2023-03-24T11:27:00;2.22;;;1.17;;
71639;SDS011;60912;48.968;10.124;2023-03-24T11:29:33;2.72;;;1.25;;
71639;SDS011;60912;48.968;10.124;2023-03-24T11:32:08;2.40;;;1.17;;
71639;SDS011;60912;48.968;10.124;2023-03-24T11:34:38;3.72;;;1.33;;
71639;SDS011;60912;48.968;10.124;2023-03-24T11:39:38;3.85;;;1.15;;
71639;SDS011;60912;48.968;10.124;2023-03-24T11:47:08;3.63;;;1.00;;
71639;SDS011;60912;48.968;10.124;2023-03-24T11:52:22;3.30;;;1.05;;
71639;SDS011;60912;48.968;10.124;2023-03-24T11:54:53;2.38;;;0.90;;
71639;SDS011;60912;48.968;10.124;2023-03-24T11:57:38;2.00;;;0.90;;
71639;SDS011;60912;48.968;10.124;2023-03-24T12:00:14;2.03;;;0.90;;
71639;SDS011;60912;48.968;10.124;2023-03-24T12:05:26;2.97;;;1.05;;
71639;SDS011;60912;48.968;10.124;2023-03-24T12:08:03;2.10;;;1.10;;
71639;SDS011;60912;48.968;10.124;2023-03-24T12:13:16;2.35;;;0.80;;
71639;SDS011;60912;48.968;10.124;2023-03-24T12:21:11;1.80;;;0.90;;
71639;SDS011;60912;48.968;10.124;2023-03-24T12:23:46;2.10;;;0.80;;
71639;SDS011;60912;48.968;10.124;2023-03-24T12:26:35;2.13;;;0.90;;
71639;SDS011;60912;48.968;10.124;2023-03-24T12:42:43;1.98;;;0.70;;
71639;SDS011;60912;48.968;10.124;2023-03-24T12:45:25;3.00;;;0.80;;
71639;SDS011;60912;48.968;10.124;2023-03-24T12:50:50;2.92;;;0.70;;
71639;SDS011;60912;48.968;10.124;2023-03-24T12:53:26;2.03;;;0.70;;
71639;SDS011;60912;48.968;10.124;2023-03-24T12:56:02;2.00;;;0.75;;
71639;SDS011;60912;48.968;10.124;2023-03-24T13:01:22;2.75;;;0.80;;
71639;SDS011;60912;48.968;10.124;2023-03-24T13:03:58;2.33;;;0.70;;
71639;SDS011;60912;48.968;10.124;2023-03-24T13:14:49;1.38;;;0.60;;
71639;SDS011;60912;48.968;10.124;2023-03-24T13:20:12;1.27;;;0.60;;
71639;SDS011;60912;48.968;10.124;2023-03-24T13:22:44;1.23;;;0.60;;
71639;SDS011;60912;48.968;10.124;2023-03-24T13:25:30;1.63;;;0.73;;
71639;SDS011;60912;48.968;10.124;2023-03-24T13:28:12;1.25;;;0.60;;
71639;SDS011;60912;48.968;10.124;2023-03-24T13:30:46;1.63;;;0.50;;
71639;SDS011;60912;48.968;10.124;2023-03-24T13:33:15;1.67;;;0.50;;
71639;SDS011;60912;48.968;10.124;2023-03-24T13:38:56;1.70;;;0.50;;
71639;SDS011;60912;48.968;10.124;2023-03-24T13:41:25;1.73;;;0.60;;
71639;SDS011;60912;48.968;10.124;2023-03-24T13:43:58;1.60;;;0.60;;
71639;SDS011;60912;48.968;10.124;2023-03-24T13:46:26;2.00;;;0.73;;
71639;SDS011;60912;48.968;10.124;2023-03-24T13:48:56;2.27;;;0.70;;
71639;SDS011;60912;48.968;10.124;2023-03-24T13:53:59;2.05;;;0.60;;
71639;SDS011;60912;48.968;10.124;2023-03-24T13:56:34;2.85;;;0.60;;
71639;SDS011;60912;48.968;10.124;2023-03-24T14:02:15;2.13;;;0.60;;
71639;SDS011;60912;48.968;10.124;2023-03-24T14:15:32;1.20;;;0.60;;
71639;SDS011;60912;48.968;10.124;2023-03-24T14:18:14;1.52;;;0.70;;
71639;SDS011;60912;48.968;10.124;2023-03-24T14:20:43;1.35;;;0.60;;
71639;SDS011;60912;48.968;10.124;2023-03-24T14:25:58;1.65;;;0.63;;
71639;SDS011;60912;48.968;10.124;2023-03-24T14:28:30;3.07;;;0.50;;
71639;SDS011;60912;48.968;10.124;2023-03-24T14:31:00;2.03;;;0.63;;
71639;SDS011;60912;48.968;10.124;2023-03-24T14:33:34;1.60;;;0.70;;
71639;SDS011;60912;48.968;10.124;2023-03-24T14:36:03;1.92;;;0.70;;
71639;SDS011;60912;48.968;10.124;2023-03-24T14:38:34;5.28;;;0.90;;
71639;SDS011;60912;48.968;10.124;2023-03-24T14:41:05;3.30;;;0.87;;
71639;SDS011;60912;48.968;10.124;2023-03-24T14:48:56;2.33;;;0.70;;
71639;SDS011;60912;48.968;10.124;2023-03-24T14:53:51;5.10;;;1.00;;
71639;SDS011;60912;48.968;10.124;2023-03-24T14:56:21;3.25;;;1.02;;
71639;SDS011;60912;48.968;10.124;2023-03-24T14:58:49;4.40;;;1.17;;
71639;SDS011;60912;48.968;10.124;2023-03-24T15:01:20;4.18;;;1.00;;
71639;SDS011;60912;48.968;10.124;2023-03-24T15:04:01;6.00;;;1.20;;
71639;SDS011;60912;48.968;10.124;2023-03-24T15:06:29;2.63;;;0.80;;
71639;SDS011;60912;48.968;10.124;2023-03-24T15:08:55;2.70;;;0.70;;
71639;SDS011;60912;48.968;10.124;2023-03-24T15:11:32;2.25;;;0.90;;
71639;SDS011;60912;48.968;10.124;2023-03-24T15:14:00;3.08;;;0.80;;
71639;SDS011;60912;48.968;10.124;2023-03-24T15:16:28;1.90;;;0.80;;
71639;SDS011;60912;48.968;10.124;2023-03-24T15:18:59;2.05;;;0.77;;
71639;SDS011;60912;48.968;10.124;2023-03-24T15:21:40;4.22;;;0.70;;
71639;SDS011;60912;48.968;10.124;2023-03-24T15:27:09;3.70;;;0.90;;
71639;SDS011;60912;48.968;10.124;2023-03-24T15:29:32;3.60;;;0.90;;
71639;SDS011;60912;48.968;10.124;2023-03-24T15:31:58;3.25;;;1.00;;
71639;SDS011;60912;48.968;10.124;2023-03-24T15:37:00;4.05;;;0.90;;
71639;SDS011;60912;48.968;10.124;2023-03-24T15:39:34;3.08;;;0.90;;
71639;SDS011;60912;48.968;10.124;2023-03-24T15:42:05;3.60;;;0.90;;
71639;SDS011;60912;48.968;10.124;2023-03-24T15:44:35;3.58;;;0.90;;
71639;SDS011;60912;48.968;10.124;2023-03-24T15:47:02;4.63;;;1.00;;
71639;SDS011;60912;48.968;10.124;2023-03-24T15:49:34;3.58;;;0.90;;
71639;SDS011;60912;48.968;10.124;2023-03-24T15:52:22;4.57;;;1.00;;
71639;SDS011;60912;48.968;10.124;2023-03-24T15:54:46;3.25;;;1.17;;
71639;SDS011;60912;48.968;10.124;2023-03-24T15:57:16;3.10;;;1.00;;
71639;SDS011;60912;48.968;10.124;2023-03-24T16:00:28;3.33;;;1.00;;
71639;SDS011;60912;48.968;10.124;2023-03-24T16:02:41;3.10;;;1.08;;
71639;SDS011;60912;48.968;10.124;2023-03-24T16:07:57;2.95;;;1.10;;
71639;SDS011;60912;48.968;10.124;2023-03-24T16:15:47;4.80;;;1.25;;
71639;SDS011;60912;48.968;10.124;2023-03-24T16:18:18;5.07;;;1.90;;
71639;SDS011;60912;48.968;10.124;2023-03-24T16:20:47;6.53;;;2.30;;
71639;SDS011;60912;48.968;10.124;2023-03-24T16:23:15;7.57;;;2.53;;
71639;SDS011;60912;48.968;10.124;2023-03-24T16:25:41;5.53;;;2.90;;
71639;SDS011;60912;48.968;10.124;2023-03-24T16:28:08;7.00;;;2.83;;
71639;SDS011;60912;48.968;10.124;2023-03-24T16:30:38;5.45;;;1.60;;
71639;SDS011;60912;48.968;10.124;2023-03-24T16:33:06;2.75;;;0.95;;
71639;SDS011;60912;48.968;10.124;2023-03-24T16:35:35;4.40;;;1.03;;
71639;SDS011;60912;48.968;10.124;2023-03-24T16:38:00;3.05;;;1.25;;
71639;SDS011;60912;48.968;10.124;2023-03-24T16:40:36;3.70;;;1.30;;
71639;SDS011;60912;48.968;10.124;2023-03-24T16:43:03;3.20;;;0.88;;
71639;SDS011;60912;48.968;10.124;2023-03-24T16:45:29;3.90;;;1.77;;
71639;SDS011;60912;48.968;10.124;2023-03-24T16:47:56;4.72;;;1.80;;
71639;SDS011;60912;48.968;10.124;2023-03-24T16:52:58;4.47;;;1.50;;
71639;SDS011;60912;48.968;10.124;2023-03-24T16:55:32;3.83;;;1.55;;
71639;SDS011;60912;48.968;10.124;2023-03-24T16:58:03;4.77;;;1.50;;
71639;SDS011;60912;48.968;10.124;2023-03-24T17:00:29;4.38;;;1.25;;
71639;SDS011;60912;48.968;10.124;2023-03-24T17:02:55;3.08;;;1.40;;
71639;SDS011;60912;48.968;10.124;2023-03-24T17:05:25;3.40;;;1.20;;
71639;SDS011;60912;48.968;10.124;2023-03-24T17:07:52;2.10;;;0.90;;
71639;SDS011;60912;48.968;10.124;2023-03-24T17:10:20;4.32;;;1.00;;
71639;SDS011;60912;48.968;10.124;2023-03-24T17:12:47;2.92;;;1.35;;
71639;SDS011;60912;48.968;10.124;2023-03-24T17:15:19;2.25;;;1.00;;
71639;SDS011;60912;48.968;10.124;2023-03-24T17:17:52;1.45;;;0.70;;
71639;SDS011;60912;48.968;10.124;2023-03-24T17:20:18;5.33;;;0.97;;
71639;SDS011;60912;48.968;10.124;2023-03-24T17:22:45;2.70;;;0.80;;
71639;SDS011;60912;48.968;10.124;2023-03-24T17:25:13;1.52;;;0.70;;
71639;SDS011;60912;48.968;10.124;2023-03-24T17:27:40;1.92;;;0.70;;
71639;SDS011;60912;48.968;10.124;2023-03-24T17:30:05;4.40;;;1.10;;
71639;SDS011;60912;48.968;10.124;2023-03-24T17:32:32;2.88;;;0.80;;
71639;SDS011;60912;48.968;10.124;2023-03-24T17:34:58;3.13;;;0.82;;
71639;SDS011;60912;48.968;10.124;2023-03-24T17:37:26;3.87;;;0.80;;
71639;SDS011;60912;48.968;10.124;2023-03-24T17:39:53;2.42;;;0.77;;
71639;SDS011;60912;48.968;10.124;2023-03-24T17:42:24;3.30;;;0.88;;
71639;SDS011;60912;48.968;10.124;2023-03-24T17:44:53;3.10;;;0.80;;
71639;SDS011;60912;48.968;10.124;2023-03-24T17:47:21;2.28;;;0.80;;
71639;SDS011;60912;48.968;10.124;2023-03-24T17:49:47;2.67;;;0.87;;
71639;SDS011;60912;48.968;10.124;2023-03-24T17:52:12;2.10;;;0.80;;
71639;SDS011;60912;48.968;10.124;2023-03-24T17:54:38;2.73;;;1.00;;
71639;SDS011;60912;48.968;10.124;2023-03-24T17:57:04;2.37;;;0.97;;
71639;SDS011;60912;48.968;10.124;2023-03-24T17:59:29;3.15;;;1.20;;
71639;SDS011;60912;48.968;10.124;2023-03-24T18:01:55;3.33;;;1.40;;
71639;SDS011;60912;48.968;10.124;2023-03-24T18:04:20;2.87;;;1.40;;
71639;SDS011;60912;48.968;10.124;2023-03-24T18:06:47;3.83;;;1.37;;
71639;SDS011;60912;48.968;10.124;2023-03-24T18:09:13;3.28;;;1.30;;
71639;SDS011;60912;48.968;10.124;2023-03-24T18:11:38;4.93;;;1.63;;
71639;SDS011;60912;48.968;10.124;2023-03-24T18:14:04;3.40;;;1.50;;
71639;SDS011;60912;48.968;10.124;2023-03-24T18:16:32;2.90;;;1.50;;
71639;SDS011;60912;48.968;10.124;2023-03-24T18:18:59;4.03;;;1.60;;